Time;durP1;ratioP1;P1;durP2;ratioP2;P2;SDS_P1;SDS_P2;PMS_P1;PMS_P2;Temp;Humidity;BMP_temperature;BMP_pressure;BME280_temperature;BME280_humidity;BME280_pressure;Samples;Min_cycle;Max_cycle;Signal;HPM_P1;HPM_P2
2022/07/18 00:00:10;;;;;;;19.13;11.02;;;13.10;99.90;;;;;;6192675;23;20403;-85
2022/07/18 00:02:36;;;;;;;15.93;9.18;;;13.10;99.90;;;;;;6192434;22;20340;-86
2022/07/18 00:05:01;;;;;;;12.93;8.65;;;13.00;99.90;;;;;;6217525;23;20012;-86
2022/07/18 00:07:27;;;;;;;15.10;8.43;;;13.00;99.90;;;;;;6192867;23;20070;-86
2022/07/18 00:09:53;;;;;;;15.18;8.82;;;13.00;99.90;;;;;;6192061;23;20012;-87
2022/07/18 00:12:18;;;;;;;14.18;8.68;;;12.90;99.90;;;;;;6192685;23;20015;-85
2022/07/18 00:14:44;;;;;;;13.50;8.43;;;12.80;99.90;;;;;;6192371;23;20008;-85
2022/07/18 00:17:10;;;;;;;12.50;8.02;;;12.90;99.90;;;;;;6192706;23;20042;-85
2022/07/18 00:19:37;;;;;;;15.32;8.55;;;12.90;99.90;;;;;;6191558;23;20059;-85
2022/07/18 00:22:03;;;;;;;12.32;8.50;;;12.80;99.90;;;;;;6192311;23;20074;-86
2022/07/18 00:24:29;;;;;;;14.95;8.85;;;12.90;99.90;;;;;;6192151;23;20012;-85
2022/07/18 00:26:54;;;;;;;13.65;8.50;;;12.80;99.90;;;;;;6192735;23;20062;-86
2022/07/18 00:29:20;;;;;;;11.73;8.23;;;12.70;99.90;;;;;;6191099;23;20058;-86
2022/07/18 00:31:46;;;;;;;10.65;7.97;;;12.70;99.90;;;;;;6191628;23;20012;-87
2022/07/18 00:34:11;;;;;;;12.65;8.02;;;12.60;99.90;;;;;;6191933;23;20054;-87
2022/07/18 00:36:37;;;;;;;11.43;7.40;;;12.60;99.90;;;;;;6192221;23;20020;-85
2022/07/18 00:39:02;;;;;;;9.95;7.53;;;12.60;99.90;;;;;;6191902;23;20011;-85
2022/07/18 00:41:28;;;;;;;8.93;6.68;;;12.60;99.90;;;;;;6192344;23;20019;-87
2022/07/18 00:43:54;;;;;;;9.73;7.20;;;12.50;99.90;;;;;;6191889;23;20086;-87
2022/07/18 00:46:24;;;;;;;11.35;7.22;;;12.60;99.90;;;;;;6217636;23;20058;-86
2022/07/18 00:48:51;;;;;;;9.10;6.45;;;12.50;99.90;;;;;;6192294;23;20325;-85
2022/07/18 00:51:17;;;;;;;9.30;7.70;;;12.50;99.90;;;;;;6217487;23;20008;-85
2022/07/18 00:53:44;;;;;;;9.15;6.72;;;12.50;99.90;;;;;;6192340;23;20472;-85
2022/07/18 00:56:09;;;;;;;10.55;6.47;;;12.50;99.90;;;;;;6192982;23;20020;-85
2022/07/18 00:58:36;;;;;;;8.73;6.97;;;12.50;99.90;;;;;;6216703;23;20016;-85
2022/07/18 01:03:46;;;;;;;9.73;6.75;;;12.50;99.90;;;;;;6217172;23;20051;-85
2022/07/18 01:06:12;;;;;;;7.20;5.88;;;12.50;99.90;;;;;;6192692;23;20012;-86
2022/07/18 01:08:39;;;;;;;10.40;6.30;;;12.50;99.90;;;;;;6192143;23;20023;-85
2022/07/18 01:11:05;;;;;;;7.60;5.90;;;12.50;99.90;;;;;;6217591;23;20016;-84
2022/07/18 01:13:31;;;;;;;7.05;6.32;;;12.50;99.90;;;;;;6216906;23;20015;-84
2022/07/18 01:15:56;;;;;;;9.88;6.60;;;12.60;99.90;;;;;;6192112;23;20233;-87
2022/07/18 01:18:22;;;;;;;8.60;6.85;;;12.40;99.90;;;;;;6191894;23;20015;-86
2022/07/18 01:20:48;;;;;;;7.90;6.00;;;12.50;99.90;;;;;;6217468;23;20066;-86
2022/07/18 01:23:13;;;;;;;10.32;6.80;;;12.40;99.90;;;;;;6192196;23;20012;-85
2022/07/18 01:25:39;;;;;;;8.68;6.80;;;12.40;99.90;;;;;;6192568;23;20004;-85
2022/07/18 01:28:04;;;;;;;8.30;6.60;;;12.40;99.90;;;;;;6191613;23;20102;-86
2022/07/18 01:30:30;;;;;;;8.45;6.32;;;12.40;99.90;;;;;;6218034;23;20016;-86
2022/07/18 02:45:19;;;;;;;10.55;7.72;;;11.80;99.90;;;;;;6282595;22;20031;-79
2022/07/18 02:47:44;;;;;;;11.48;7.72;;;11.80;99.90;;;;;;6228349;22;20417;-79
2022/07/18 02:50:11;;;;;;;9.52;7.13;;;11.80;99.90;;;;;;6251443;22;20086;-79
2022/07/18 02:53:29;;;;;;;;;;;;;;;;;;;;;
2022/07/18 02:56:53;;;;;;;9.52;7.82;;;11.70;99.90;;;;;;6183214;23;20016;-80
2022/07/18 02:59:22;;;;;;;10.07;7.40;;;11.70;99.90;;;;;;6243455;22;20035;-87
2022/07/18 03:01:50;;;;;;;10.52;8.10;;;11.70;99.90;;;;;;6223387;22;20015;-86
2022/07/18 03:04:18;;;;;;;14.23;8.00;;;11.60;99.90;;;;;;6223473;22;20004;-85
2022/07/18 03:06:44;;;;;;;16.88;9.50;;;11.60;99.90;;;;;;6248398;22;20086;-86
2022/07/18 03:09:09;;;;;;;11.23;8.43;;;11.60;99.90;;;;;;6199408;23;20048;-86
2022/07/18 03:11:35;;;;;;;15.10;9.77;;;11.50;99.90;;;;;;6192943;23;20432;-86
2022/07/18 03:14:00;;;;;;;11.43;8.20;;;11.50;99.90;;;;;;6218209;23;20008;-86
2022/07/18 03:16:26;;;;;;;12.27;8.50;;;11.60;99.90;;;;;;6217992;23;20066;-86
2022/07/18 03:18:52;;;;;;;14.82;9.90;;;11.50;99.90;;;;;;6192096;23;20008;-87
2022/07/18 03:21:17;;;;;;;13.50;9.05;;;11.50;99.90;;;;;;6193160;23;20012;-85
2022/07/18 03:23:43;;;;;;;13.48;8.73;;;11.50;99.90;;;;;;6192554;23;20008;-86
2022/07/18 03:26:08;;;;;;;13.32;9.02;;;11.50;99.90;;;;;;6192855;23;20015;-87
2022/07/18 03:28:34;;;;;;;15.60;9.90;;;11.50;99.90;;;;;;6192178;23;20040;-86
2022/07/18 03:31:00;;;;;;;16.45;9.88;;;11.50;99.90;;;;;;6193307;23;20095;-87
2022/07/18 03:33:26;;;;;;;13.90;9.77;;;11.50;99.90;;;;;;6192461;23;20353;-87
2022/07/18 03:35:52;;;;;;;15.68;9.60;;;11.50;99.90;;;;;;6193447;23;20011;-85
2022/07/18 03:38:18;;;;;;;14.07;9.38;;;11.50;99.90;;;;;;6192474;23;20008;-85
2022/07/18 03:40:43;;;;;;;12.30;9.05;;;11.60;99.90;;;;;;6192351;23;20016;-85
2022/07/18 03:43:09;;;;;;;14.50;9.90;;;11.60;99.90;;;;;;6193082;23;20336;-86
2022/07/18 03:45:35;;;;;;;14.43;10.02;;;11.60;99.90;;;;;;6193160;23;20054;-86
2022/07/18 03:48:00;;;;;;;11.80;9.23;;;11.60;99.90;;;;;;6191712;23;20019;-86
2022/07/18 03:50:27;;;;;;;11.75;8.82;;;11.60;99.90;;;;;;6192431;23;20019;-86
2022/07/18 03:52:53;;;;;;;11.00;8.43;;;11.70;99.90;;;;;;6192463;23;20012;-86
2022/07/18 03:55:19;;;;;;;14.27;9.13;;;11.70;99.90;;;;;;6192750;23;20023;-86
2022/07/18 03:57:44;;;;;;;11.93;8.63;;;11.80;99.90;;;;;;6217123;23;20008;-85
2022/07/18 04:00:11;;;;;;;11.48;8.88;;;11.80;99.90;;;;;;6193000;23;20098;-86
2022/07/18 04:02:42;;;;;;;15.40;9.60;;;11.80;99.90;;;;;;6217667;23;20014;-86
2022/07/18 04:05:09;;;;;;;12.48;8.68;;;11.80;99.90;;;;;;6191694;23;20444;-86
2022/07/18 04:07:35;;;;;;;11.75;9.73;;;11.80;99.90;;;;;;6192101;22;20016;-86
2022/07/18 04:10:04;;;;;;;13.52;10.07;;;11.80;99.90;;;;;;6217871;23;20103;-87
2022/07/18 04:12:30;;;;;;;13.73;10.38;;;11.90;99.90;;;;;;6168291;23;20016;-86
2022/07/18 04:14:56;;;;;;;16.70;9.80;;;12.00;99.90;;;;;;6191913;23;20014;-86
2022/07/18 04:17:22;;;;;;;13.27;9.32;;;12.00;99.90;;;;;;6217022;22;20066;-87
2022/07/18 04:19:47;;;;;;;14.02;10.30;;;12.10;99.90;;;;;;6192320;23;20093;-87
2022/07/18 04:22:13;;;;;;;14.23;10.10;;;12.10;99.90;;;;;;6192483;23;20095;-88
2022/07/18 04:24:38;;;;;;;14.70;9.50;;;12.20;99.90;;;;;;6192798;23;20345;-87
2022/07/18 04:27:04;;;;;;;10.73;8.57;;;12.20;99.90;;;;;;6192462;23;20016;-87
2022/07/18 04:29:31;;;;;;;13.88;9.05;;;12.20;99.90;;;;;;6191547;23;20540;-87
2022/07/18 04:31:57;;;;;;;17.48;10.55;;;12.30;99.90;;;;;;6192369;23;20050;-86
2022/07/18 04:34:23;;;;;;;11.20;8.82;;;12.30;99.90;;;;;;6192518;23;20445;-86
2022/07/18 04:36:49;;;;;;;13.52;9.05;;;12.50;99.90;;;;;;6192131;23;20047;-86
2022/07/18 04:39:16;;;;;;;12.75;9.10;;;12.50;99.90;;;;;;6192623;23;20058;-87
2022/07/18 04:41:42;;;;;;;12.57;9.18;;;12.50;99.90;;;;;;6192554;23;20008;-87
2022/07/18 04:44:08;;;;;;;13.18;9.40;;;12.60;99.90;;;;;;6192175;23;20035;-87
2022/07/18 04:46:33;;;;;;;12.73;9.20;;;12.70;99.90;;;;;;6191650;23;20043;-87
2022/07/18 04:48:59;;;;;;;12.88;9.40;;;12.80;99.90;;;;;;6192634;23;20012;-86
2022/07/18 04:51:25;;;;;;;13.25;8.85;;;12.90;99.90;;;;;;6193123;23;20047;-87
2022/07/18 04:53:50;;;;;;;11.38;9.05;;;13.00;99.90;;;;;;6191982;23;20099;-87
2022/07/18 04:56:16;;;;;;;11.90;9.30;;;13.10;99.90;;;;;;6192817;23;20483;-86
2022/07/18 04:58:41;;;;;;;11.30;8.55;;;13.20;99.90;;;;;;6191899;23;20008;-86
2022/07/18 05:01:07;;;;;;;12.93;9.40;;;13.30;99.90;;;;;;6192159;23;20095;-86
2022/07/18 05:03:33;;;;;;;14.18;10.15;;;13.30;99.90;;;;;;6191900;23;20425;-86
2022/07/18 05:05:58;;;;;;;11.98;9.13;;;13.50;99.90;;;;;;6218930;23;20004;-85
2022/07/18 05:08:24;;;;;;;14.52;9.60;;;13.50;99.90;;;;;;6219095;23;20012;-85
2022/07/18 05:10:50;;;;;;;11.60;9.32;;;13.70;99.90;;;;;;6193798;23;20020;-86
2022/07/18 05:13:16;;;;;;;11.70;9.75;;;13.80;99.90;;;;;;6193125;23;20008;-86
2022/07/18 05:15:41;;;;;;;12.23;8.80;;;14.10;99.90;;;;;;6193724;23;20420;-86
2022/07/18 05:18:07;;;;;;;12.55;9.23;;;14.40;99.90;;;;;;6217937;23;20004;-84
2022/07/18 05:20:33;;;;;;;11.68;7.93;;;14.60;99.90;;;;;;6193701;23;20475;-85
2022/07/18 05:22:58;;;;;;;11.50;7.68;;;14.90;99.90;;;;;;6192993;23;20008;-84
2022/07/18 05:25:24;;;;;;;8.52;5.80;;;15.10;99.90;;;;;;6194300;23;20008;-85
2022/07/18 05:27:50;;;;;;;8.55;6.57;;;15.20;99.90;;;;;;6193778;23;20061;-85
2022/07/18 05:30:16;;;;;;;9.85;6.32;;;15.30;99.90;;;;;;6217865;23;20057;-85
2022/07/18 05:32:43;;;;;;;6.95;5.35;;;15.50;99.90;;;;;;6193019;23;20409;-83
2022/07/18 05:35:11;;;;;;;9.27;5.07;;;15.70;99.90;;;;;;6192733;23;20020;-87
2022/07/18 05:37:37;;;;;;;8.70;5.85;;;15.80;99.90;;;;;;6192836;22;20348;-84
2022/07/18 05:40:04;;;;;;;7.35;5.55;;;16.00;99.90;;;;;;6193881;23;20322;-86
2022/07/18 05:42:30;;;;;;;8.15;5.32;;;16.00;99.90;;;;;;6219147;23;20010;-87
2022/07/18 05:44:55;;;;;;;8.60;5.47;;;16.10;99.90;;;;;;6193470;23;20046;-86
2022/07/18 05:47:21;;;;;;;7.45;5.00;;;16.10;99.90;;;;;;6193672;22;20091;-86
2022/07/18 05:49:46;;;;;;;8.30;5.20;;;16.10;99.90;;;;;;6193844;23;20510;-85
2022/07/18 05:52:12;;;;;;;6.97;4.88;;;16.10;99.90;;;;;;6218026;23;20016;-85
2022/07/18 05:54:38;;;;;;;8.18;5.13;;;16.20;99.90;;;;;;6194103;23;20016;-85
2022/07/18 05:57:03;;;;;;;7.03;4.40;;;16.20;99.90;;;;;;6194121;23;20016;-85
2022/07/18 05:59:29;;;;;;;6.80;4.47;;;16.30;99.90;;;;;;6219318;23;20050;-85
2022/07/18 06:01:55;;;;;;;8.93;4.95;;;16.30;99.90;;;;;;6218334;23;20452;-84
2022/07/18 06:04:21;;;;;;;7.47;5.13;;;16.30;99.90;;;;;;6193070;23;20091;-85
2022/07/18 06:06:49;;;;;;;8.73;4.90;;;16.40;99.90;;;;;;6193478;23;20015;-85
2022/07/18 06:09:16;;;;;;;7.47;4.85;;;16.50;99.90;;;;;;6193907;23;20015;-84
2022/07/18 06:11:42;;;;;;;7.50;5.03;;;16.60;99.90;;;;;;6192958;23;20008;-85
2022/07/18 06:14:08;;;;;;;6.03;4.72;;;16.70;99.90;;;;;;6193365;23;20091;-84
2022/07/18 06:16:33;;;;;;;8.63;4.97;;;16.80;99.90;;;;;;6193183;23;20019;-84
2022/07/18 06:18:59;;;;;;;6.72;5.35;;;16.90;99.90;;;;;;6193319;23;20016;-85
2022/07/18 06:21:25;;;;;;;8.30;5.28;;;17.00;99.90;;;;;;6193024;23;20012;-87
2022/07/18 06:23:51;;;;;;;7.82;4.70;;;17.20;99.90;;;;;;6191664;23;20012;-85
2022/07/18 06:26:17;;;;;;;7.50;4.57;;;17.30;99.90;;;;;;6193371;23;20520;-85
2022/07/18 06:28:42;;;;;;;7.03;4.97;;;17.50;99.90;;;;;;6191043;23;20019;-83
2022/07/18 06:31:08;;;;;;;6.47;4.43;;;17.50;99.90;;;;;;6192442;23;20008;-87
2022/07/18 06:33:34;;;;;;;6.45;4.57;;;17.70;99.90;;;;;;6192101;23;20066;-88
2022/07/18 06:35:59;;;;;;;9.45;4.72;;;17.80;99.90;;;;;;6192457;23;20441;-88
2022/07/18 06:38:25;;;;;;;6.32;3.80;;;17.90;99.90;;;;;;6191760;23;20082;-87
2022/07/18 06:40:51;;;;;;;6.10;4.50;;;17.90;99.90;;;;;;6191543;23;20016;-87
2022/07/18 06:43:19;;;;;;;6.30;4.00;;;18.10;99.90;;;;;;6216807;23;20455;-87
2022/07/18 06:45:48;;;;;;;7.75;4.43;;;18.10;99.90;;;;;;6191620;23;20444;-88
2022/07/18 06:48:15;;;;;;;5.78;4.13;;;18.30;99.90;;;;;;6191464;23;20019;-88
2022/07/18 06:50:41;;;;;;;6.20;3.97;;;18.40;99.90;;;;;;6191855;23;20521;-87
2022/07/18 06:53:06;;;;;;;7.28;3.97;;;18.40;99.90;;;;;;6218306;23;20478;-88
2022/07/18 06:55:32;;;;;;;7.05;3.70;;;18.50;99.90;;;;;;6193366;23;20091;-88
2022/07/18 06:57:58;;;;;;;5.43;3.70;;;18.70;99.90;;;;;;6193238;23;20149;-88
2022/07/18 07:00:24;;;;;;;5.35;3.80;;;18.80;99.90;;;;;;6193242;23;20051;-88
2022/07/18 07:02:50;;;;;;;5.07;3.58;;;19.00;99.90;;;;;;6193430;23;20012;-88
2022/07/18 07:05:18;;;;;;;6.38;4.20;;;19.10;99.90;;;;;;6193468;23;20027;-88
2022/07/18 07:07:45;;;;;;;6.43;3.85;;;19.20;99.90;;;;;;6193782;23;20019;-89
2022/07/18 07:13:26;;;;;;;4.90;3.83;;;19.40;99.90;;;;;;6217834;23;20039;-88
2022/07/18 07:15:52;;;;;;;7.50;4.25;;;19.70;99.90;;;;;;6193139;23;20012;-88
2022/07/18 07:18:17;;;;;;;9.32;4.05;;;19.80;99.90;;;;;;6193217;23;20012;-88
2022/07/18 07:20:43;;;;;;;4.95;3.63;;;19.90;99.90;;;;;;6192653;23;20067;-88
2022/07/18 07:23:09;;;;;;;6.55;3.70;;;20.00;99.90;;;;;;6193086;23;20020;-88
2022/07/18 07:25:35;;;;;;;7.07;3.90;;;20.10;99.90;;;;;;6217490;23;20066;-87
2022/07/18 07:28:02;;;;;;;7.07;3.80;;;20.30;99.90;;;;;;6193288;23;20026;-86
2022/07/18 07:30:28;;;;;;;5.55;3.60;;;20.40;99.90;;;;;;6192180;23;20020;-87
2022/07/18 07:32:54;;;;;;;5.05;3.33;;;20.50;99.90;;;;;;6217547;23;20018;-88
2022/07/18 07:35:20;;;;;;;5.90;3.63;;;20.50;99.90;;;;;;6192682;23;20044;-88
2022/07/18 07:37:50;;;;;;;6.97;3.45;;;20.60;99.90;;;;;;6192425;23;20012;-88
2022/07/18 07:40:16;;;;;;;5.82;3.28;;;20.60;99.90;;;;;;6192548;23;20016;-88
2022/07/18 07:42:42;;;;;;;5.53;2.78;;;20.70;99.90;;;;;;6217297;23;20015;-87
2022/07/18 07:45:09;;;;;;;5.03;2.80;;;20.70;99.90;;;;;;6193143;23;20015;-88
2022/07/18 07:47:36;;;;;;;4.85;2.78;;;20.80;99.90;;;;;;6193311;22;20016;-88
2022/07/18 07:50:04;;;;;;;4.68;2.45;;;20.90;99.90;;;;;;6193028;23;20012;-88
2022/07/18 07:52:30;;;;;;;4.60;2.58;;;21.10;99.90;;;;;;6192783;23;20090;-88
2022/07/18 07:54:55;;;;;;;7.30;2.45;;;21.30;99.90;;;;;;6192801;23;20023;-90
2022/07/18 07:57:21;;;;;;;4.43;2.35;;;21.60;99.90;;;;;;6192873;22;20012;-89
2022/07/18 07:59:47;;;;;;;4.28;2.30;;;22.00;98.90;;;;;;6192878;23;20461;-88
2022/07/18 08:02:14;;;;;;;3.92;2.40;;;22.40;99.40;;;;;;6192006;23;20012;-88
2022/07/18 08:04:40;;;;;;;4.20;2.22;;;22.80;98.80;;;;;;6217961;23;20068;-88
2022/07/18 08:07:06;;;;;;;5.00;2.13;;;23.10;96.90;;;;;;6192592;23;20020;-89
2022/07/18 08:09:32;;;;;;;5.47;2.03;;;23.50;96.50;;;;;;6192188;23;20047;-88
2022/07/18 08:11:57;;;;;;;4.03;2.20;;;23.90;95.90;;;;;;6192273;23;20012;-89
2022/07/18 08:14:23;;;;;;;4.68;2.20;;;24.40;94.20;;;;;;6192405;23;20517;-89
2022/07/18 08:16:49;;;;;;;3.15;1.77;;;24.90;93.50;;;;;;6192612;23;20500;-88
2022/07/18 08:19:15;;;;;;;4.13;1.95;;;25.40;92.50;;;;;;6192586;23;20012;-89
2022/07/18 08:21:40;;;;;;;2.70;1.77;;;25.80;90.70;;;;;;6192621;23;20039;-85
2022/07/18 08:24:06;;;;;;;3.67;1.65;;;26.30;90.20;;;;;;6191715;23;20023;-90
2022/07/18 08:26:34;;;;;;;3.30;1.70;;;26.70;87.60;;;;;;6192212;23;20050;-89
2022/07/18 08:28:59;;;;;;;4.13;1.60;;;27.10;87.00;;;;;;6191479;23;20020;-88
2022/07/18 08:31:25;;;;;;;4.45;1.60;;;27.50;83.40;;;;;;6192078;23;20008;-87
2022/07/18 08:33:50;;;;;;;3.30;1.80;;;27.80;80.10;;;;;;6192100;23;20451;-89
2022/07/18 08:36:16;;;;;;;2.45;1.63;;;28.10;76.30;;;;;;6217441;23;20027;-88
2022/07/18 08:38:42;;;;;;;4.38;1.58;;;28.40;72.60;;;;;;6216751;23;20016;-88
2022/07/18 08:41:09;;;;;;;2.70;1.25;;;28.70;71.70;;;;;;6216831;23;20018;-90
2022/07/18 08:43:34;;;;;;;4.38;1.35;;;29.10;71.40;;;;;;6192364;23;20452;-89
2022/07/18 08:46:03;;;;;;;2.55;1.52;;;29.60;70.40;;;;;;6192456;23;20023;-89
2022/07/18 08:48:29;;;;;;;3.13;1.33;;;30.00;68.90;;;;;;6192378;23;20023;-88
2022/07/18 08:50:55;;;;;;;2.47;1.40;;;30.00;67.80;;;;;;6192151;23;20012;-89
2022/07/18 08:53:20;;;;;;;4.05;1.58;;;30.10;66.60;;;;;;6192160;23;20399;-88
2022/07/18 08:55:47;;;;;;;2.30;1.17;;;30.30;64.80;;;;;;6192002;23;20475;-88
2022/07/18 09:08:36;;;;;;;3.00;1.20;;;30.60;60.70;;;;;;6217871;22;20016;-80
2022/07/18 09:11:03;;;;;;;2.35;1.10;;;30.80;59.00;;;;;;6231260;22;20016;-80
2022/07/18 09:13:38;;;;;;;2.47;1.00;;;30.90;57.90;;;;;;6258403;22;20019;-80
2022/07/18 09:16:11;;;;;;;2.53;1.15;;;31.10;57.60;;;;;;6230345;22;20018;-80
2022/07/18 09:18:39;;;;;;;;;;;31.40;57.40;;;;;;6222049;23;20016;-80
2022/07/18 09:21:10;;;;;;;3.28;1.08;;;31.60;56.10;;;;;;6229402;23;20251;-80
2022/07/18 09:23:44;;;;;;;2.08;1.00;;;32.00;57.00;;;;;;6228866;23;20008;-80
2022/07/18 09:26:11;;;;;;;2.53;0.95;;;32.30;56.90;;;;;;6228242;23;20340;-80
2022/07/18 09:28:50;;;;;;;3.00;1.20;;;32.40;56.30;;;;;;6228813;23;20016;-80
2022/07/18 09:31:24;;;;;;;1.83;1.00;;;32.40;52.00;;;;;;6203316;23;20012;-80
2022/07/18 09:33:57;;;;;;;2.85;1.15;;;32.30;54.10;;;;;;6203537;23;20054;-80
2022/07/18 09:36:23;;;;;;;2.85;1.10;;;32.10;53.90;;;;;;6204326;23;20016;-80
2022/07/18 09:38:49;;;;;;;2.15;1.00;;;32.00;54.10;;;;;;6202248;23;20018;-79
2022/07/18 09:41:15;;;;;;;1.58;1.10;;;31.80;52.90;;;;;;6204680;23;20012;-80
2022/07/18 09:43:41;;;;;;;2.40;1.30;;;31.70;52.80;;;;;;6204238;23;20044;-80
2022/07/18 09:46:07;;;;;;;2.00;1.23;;;31.70;53.10;;;;;;6227382;23;20024;-80
2022/07/18 09:48:34;;;;;;;3.00;1.30;;;31.80;53.00;;;;;;6228895;23;20012;-80
2022/07/18 09:51:04;;;;;;;2.42;1.20;;;31.90;52.00;;;;;;6229878;23;20008;-80
2022/07/18 09:53:31;;;;;;;3.95;1.30;;;32.00;52.30;;;;;;6206178;23;20340;-80
2022/07/18 09:56:06;;;;;;;1.80;1.17;;;32.20;51.90;;;;;;6231154;23;20020;-80
2022/07/18 09:58:33;;;;;;;2.13;1.25;;;32.30;51.80;;;;;;6234854;23;20012;-80
2022/07/18 10:01:01;;;;;;;2.85;1.50;;;32.40;52.00;;;;;;6234187;23;20012;-80
2022/07/18 10:03:28;;;;;;;2.65;1.25;;;32.50;52.00;;;;;;6207973;23;20016;-80
2022/07/18 10:05:56;;;;;;;2.25;1.02;;;32.60;52.50;;;;;;6232444;23;20008;-80
2022/07/18 10:08:24;;;;;;;3.90;1.20;;;32.70;52.70;;;;;;6209584;23;20012;-80
2022/07/18 10:10:52;;;;;;;1.23;0.90;;;32.90;51.40;;;;;;6231838;23;20054;-80
2022/07/18 10:13:20;;;;;;;1.80;1.13;;;33.10;52.30;;;;;;6232881;23;20027;-80
2022/07/18 10:15:48;;;;;;;1.98;1.20;;;33.20;51.40;;;;;;6208545;23;20012;-80
2022/07/18 10:18:18;;;;;;;2.83;1.10;;;33.20;50.00;;;;;;6209758;23;20005;-80
2022/07/18 10:21:06;;;;;;;2.25;1.13;;;33.20;49.70;;;;;;6235629;23;20019;-80
2022/07/18 10:23:39;;;;;;;2.13;1.00;;;33.20;48.80;;;;;;6213552;23;20016;-80
2022/07/18 10:26:14;;;;;;;1.27;0.90;;;33.20;47.90;;;;;;6235654;23;19996;-80
2022/07/18 10:28:55;;;;;;;1.60;1.20;;;33.20;47.00;;;;;;6209832;23;20019;-80
2022/07/18 10:31:25;;;;;;;2.90;1.02;;;33.20;47.70;;;;;;6234660;23;20016;-80
2022/07/18 10:34:10;;;;;;;2.17;1.20;;;33.30;48.50;;;;;;6233794;23;20012;-80
2022/07/18 10:37:03;;;;;;;1.70;1.15;;;33.40;48.60;;;;;;6207299;23;20043;-80
2022/07/18 10:39:50;;;;;;;5.68;1.20;;;33.60;47.30;;;;;;6206915;23;20016;-80
2022/07/18 10:42:18;;;;;;;1.80;1.30;;;33.80;48.50;;;;;;6233798;23;20023;-81
2022/07/18 10:44:44;;;;;;;3.35;1.70;;;33.90;48.20;;;;;;6238599;23;20456;-80
2022/07/18 10:47:20;;;;;;;3.30;1.45;;;33.90;46.60;;;;;;6234058;23;20068;-80
2022/07/18 10:49:46;;;;;;;4.50;2.22;;;33.80;46.60;;;;;;6212196;23;20008;-80
2022/07/18 10:52:30;;;;;;;2.47;1.70;;;33.80;46.80;;;;;;6233710;23;20027;-80
2022/07/18 10:55:04;;;;;;;2.00;1.50;;;33.70;48.60;;;;;;6211510;23;20036;-80
2022/07/18 10:57:31;;;;;;;2.60;1.70;;;33.60;48.80;;;;;;6215117;23;20034;-80
2022/07/18 11:00:09;;;;;;;2.30;1.40;;;33.50;47.20;;;;;;6237826;23;20024;-80
2022/07/18 11:02:46;;;;;;;2.78;1.52;;;33.30;48.00;;;;;;6206937;23;20008;-80
2022/07/18 11:05:27;;;;;;;3.45;1.40;;;33.10;47.10;;;;;;6228001;23;20121;-80
2022/07/18 11:08:01;;;;;;;2.33;1.55;;;32.80;47.50;;;;;;6201185;22;20023;-80
2022/07/18 11:10:54;;;;;;;2.70;1.48;;;32.60;48.50;;;;;;6202924;23;20256;-80
2022/07/18 11:13:29;;;;;;;3.55;1.50;;;32.50;46.30;;;;;;6202680;23;20023;-80
2022/07/18 11:16:05;;;;;;;2.72;1.67;;;32.30;47.60;;;;;;6201173;23;20012;-80
2022/07/18 11:18:51;;;;;;;3.80;1.60;;;32.40;49.20;;;;;;6203344;23;20019;-80
2022/07/18 11:21:26;;;;;;;3.17;1.70;;;32.60;48.50;;;;;;6201679;23;20023;-79
2022/07/18 11:23:59;;;;;;;2.90;1.60;;;32.70;47.30;;;;;;6229150;23;20012;-80
2022/07/18 11:26:25;;;;;;;2.58;1.80;;;32.80;47.40;;;;;;6229566;23;20444;-79
2022/07/18 11:28:58;;;;;;;1.92;1.55;;;32.80;46.90;;;;;;6227928;23;20479;-79
2022/07/18 11:31:26;;;;;;;7.20;2.13;;;32.90;47.40;;;;;;6228848;23;20016;-80
2022/07/18 11:33:52;;;;;;;2.55;1.95;;;33.00;48.40;;;;;;6203671;23;20328;-80
2022/07/18 11:36:20;;;;;;;2.58;1.65;;;33.20;48.80;;;;;;6204271;23;20067;-80
2022/07/18 11:38:52;;;;;;;2.50;1.67;;;33.40;48.00;;;;;;6202753;23;20008;-80
2022/07/18 11:41:18;;;;;;;2.47;1.63;;;33.60;46.80;;;;;;6228148;23;20020;-80
2022/07/18 11:43:45;;;;;;;2.42;1.55;;;33.80;45.20;;;;;;6204487;23;20503;-80
2022/07/18 11:46:12;;;;;;;3.45;1.73;;;33.90;44.10;;;;;;6230164;23;20008;-80
2022/07/18 11:48:39;;;;;;;2.80;1.63;;;34.10;44.20;;;;;;6229073;23;20012;-80
2022/07/18 11:51:16;;;;;;;2.33;1.63;;;34.30;44.50;;;;;;6229418;23;20456;-80
2022/07/18 11:53:47;;;;;;;2.78;1.40;;;34.50;42.70;;;;;;6229628;23;20012;-80
2022/07/18 11:56:14;;;;;;;2.45;1.77;;;34.70;43.20;;;;;;6229351;23;20023;-80
2022/07/18 11:58:40;;;;;;;2.95;1.70;;;35.00;43.50;;;;;;6227905;23;20027;-80
2022/07/18 12:01:07;;;;;;;4.82;1.70;;;35.20;44.10;;;;;;6204107;23;20023;-79
2022/07/18 12:03:47;;;;;;;2.30;1.42;;;35.30;42.80;;;;;;6205100;23;20042;-80
2022/07/18 12:06:19;;;;;;;2.58;1.60;;;35.40;44.80;;;;;;6230202;23;20008;-80
2022/07/18 12:08:51;;;;;;;2.35;1.52;;;35.40;42.50;;;;;;6204572;23;20023;-80
2022/07/18 12:11:28;;;;;;;3.90;1.60;;;35.50;43.80;;;;;;6205224;23;20020;-80
2022/07/18 12:14:02;;;;;;;3.17;1.55;;;35.40;44.60;;;;;;6228641;23;20039;-80
2022/07/18 12:16:46;;;;;;;3.63;1.42;;;35.40;45.00;;;;;;6203558;23;20016;-80
2022/07/18 12:19:15;;;;;;;3.88;1.75;;;35.40;44.50;;;;;;6204796;23;20071;-80
2022/07/18 12:21:51;;;;;;;3.42;1.70;;;35.70;44.10;;;;;;6203196;23;20317;-80
2022/07/18 12:24:39;;;;;;;2.22;1.58;;;36.00;42.70;;;;;;6204759;23;20074;-80
2022/07/18 12:27:25;;;;;;;2.95;1.60;;;36.10;43.30;;;;;;6229667;23;20392;-79
2022/07/18 12:30:03;;;;;;;2.72;1.40;;;36.40;43.20;;;;;;6202419;23;20019;-80
2022/07/18 12:32:55;;;;;;;1.63;1.30;;;36.60;43.00;;;;;;6203849;23;20019;-80
2022/07/18 12:35:25;;;;;;;2.20;1.45;;;36.90;42.80;;;;;;6229208;23;20012;-80
2022/07/18 12:37:57;;;;;;;2.15;1.50;;;37.00;43.00;;;;;;6203157;22;20008;-80
2022/07/18 12:40:23;;;;;;;2.27;1.37;;;36.80;40.80;;;;;;6204304;23;20047;-80
2022/07/18 12:42:49;;;;;;;2.92;1.52;;;36.30;42.30;;;;;;6203625;23;20272;-79
2022/07/18 12:45:15;;;;;;;3.42;1.73;;;36.10;42.90;;;;;;6204907;23;20008;-80
2022/07/18 12:47:41;;;;;;;3.05;1.42;;;36.10;42.90;;;;;;6204911;23;20039;-80
2022/07/18 12:50:07;;;;;;;2.13;1.40;;;36.40;43.80;;;;;;6228054;23;20016;-79
2022/07/18 12:52:34;;;;;;;3.15;1.30;;;36.60;42.80;;;;;;6228544;23;20086;-80
2022/07/18 12:55:00;;;;;;;4.45;1.50;;;36.40;42.70;;;;;;6229914;23;20093;-80
2022/07/18 12:57:26;;;;;;;1.80;1.50;;;36.20;44.40;;;;;;6205727;23;20004;-79
2022/07/18 12:59:52;;;;;;;2.92;1.40;;;36.10;43.80;;;;;;6230180;23;20016;-79
2022/07/18 13:02:18;;;;;;;2.60;1.30;;;36.10;43.20;;;;;;6231950;23;20012;-80
2022/07/18 13:04:44;;;;;;;2.75;1.40;;;36.20;42.70;;;;;;6233845;23;20095;-80
2022/07/18 13:07:11;;;;;;;2.45;1.40;;;36.40;42.80;;;;;;6233398;23;20012;-80
2022/07/18 13:09:37;;;;;;;2.08;1.30;;;36.60;43.30;;;;;;6232605;23;20020;-80
2022/07/18 13:12:03;;;;;;;1.52;1.20;;;36.60;44.00;;;;;;6230148;23;20035;-80
2022/07/18 13:14:29;;;;;;;3.75;1.73;;;36.50;44.10;;;;;;6202713;23;20012;-80
2022/07/18 13:16:54;;;;;;;3.70;1.40;;;36.20;43.90;;;;;;6229024;23;20082;-79
2022/07/18 13:19:20;;;;;;;2.95;1.50;;;36.00;44.50;;;;;;6225861;23;20023;-80
2022/07/18 13:21:48;;;;;;;2.60;1.42;;;35.90;44.50;;;;;;6202700;23;20384;-80
2022/07/18 13:24:14;;;;;;;1.70;1.40;;;35.70;45.10;;;;;;6201051;23;20012;-79
2022/07/18 13:26:41;;;;;;;2.00;1.40;;;35.40;44.30;;;;;;6227272;23;20019;-80
2022/07/18 13:29:07;;;;;;;2.53;1.10;;;35.30;43.60;;;;;;6225008;23;20023;-79
2022/07/18 13:31:34;;;;;;;1.52;1.20;;;35.30;42.40;;;;;;6223717;23;20016;-79
2022/07/18 13:33:59;;;;;;;2.25;1.48;;;35.30;42.10;;;;;;6226525;23;20091;-80
2022/07/18 13:36:25;;;;;;;2.35;1.42;;;35.40;42.30;;;;;;6227710;23;20019;-79
2022/07/18 13:38:51;;;;;;;1.83;1.30;;;35.50;42.70;;;;;;6199038;23;20087;-79
2022/07/18 13:41:16;;;;;;;2.05;1.00;;;35.30;41.90;;;;;;6228271;23;20048;-79
2022/07/18 13:43:42;;;;;;;2.30;1.30;;;35.10;43.60;;;;;;6226354;23;20064;-79
2022/07/18 13:46:10;;;;;;;2.95;1.20;;;35.00;44.10;;;;;;6226593;23;20004;-79
2022/07/18 13:48:36;;;;;;;2.03;1.20;;;35.30;45.20;;;;;;6227662;23;20413;-79
2022/07/18 13:51:02;;;;;;;3.10;1.65;;;35.50;45.80;;;;;;6226226;23;20095;-79
2022/07/18 13:53:28;;;;;;;3.35;1.40;;;35.60;45.10;;;;;;6204030;23;20019;-79
2022/07/18 13:55:54;;;;;;;1.83;1.40;;;35.70;45.50;;;;;;6226858;23;20013;-79
2022/07/18 13:58:20;;;;;;;3.88;1.38;;;35.80;44.90;;;;;;6226352;23;20043;-79
2022/07/18 14:00:46;;;;;;;1.50;1.17;;;36.10;44.10;;;;;;6200705;23;20019;-79
2022/07/18 14:03:11;;;;;;;2.97;1.48;;;36.40;43.40;;;;;;6226248;23;20044;-79
2022/07/18 14:05:39;;;;;;;2.22;1.20;;;36.80;42.80;;;;;;6199654;23;20012;-79
2022/07/18 14:08:05;;;;;;;2.33;1.48;;;37.10;41.30;;;;;;6227133;22;20124;-79
2022/07/18 14:10:31;;;;;;;3.03;1.40;;;37.20;40.80;;;;;;6231075;23;20119;-79
2022/07/18 14:12:57;;;;;;;2.22;1.50;;;37.40;42.40;;;;;;6203261;23;20019;-80
2022/07/18 14:15:24;;;;;;;2.95;1.50;;;37.50;41.60;;;;;;6205674;23;20016;-79
2022/07/18 14:17:49;;;;;;;2.53;1.10;;;37.70;42.70;;;;;;6230792;22;20064;-79